Engenho do Ribeiro, Brazil
Current Conditions -  °F | °C
As of 8:00 AM on Saturday 25 Oct 2014 (Local Time) from SBPR Reporting Station
Broken Clouds Broken Clouds  
Wind Chill: 70°   Ceiling: 8000
Heat Index: 70°   Visibility: 6mi
Dew Point: 57°   Wind: 13mph
Humidity: 64%   Direction: 130°SE
Pressure: 30.03"   Gusts: NA
Location:  19.57°S, 45.3°W
Report Text: SBPR 251000Z 13011KT 9999 FEW030 BKN080 21/14 Q1017
Loading
Personal Weather Stations






























Interactive Weather Map
Tropical Storm Tracking
New forecast layout! Learn more

10-Day Weather Forecast

Advertisements
Track Severe Weather on mobile